Time;durP1;ratioP1;P1;durP2;ratioP2;P2;SDS_P1;SDS_P2;PMS_P1;PMS_P2;Temp;Humidity;BMP_temperature;BMP_pressure;BME280_temperature;BME280_humidity;BME280_pressure;Samples;Min_cycle;Max_cycle;Signal;HPM_P1;HPM_P2
2021/08/03 00:01:43;;;;;;;32.17;16.23;;;11.20;99.90;;;;;;5142267;27;20612;-67
2021/08/03 00:04:34;;;;;;;35.07;16.57;;;11.20;99.90;;;;;;5135948;27;20269;-67
2021/08/03 00:07:23;;;;;;;28.87;16.33;;;11.10;99.90;;;;;;5142664;27;20232;-68
2021/08/03 00:10:11;;;;;;;32.83;17.03;;;11.10;99.90;;;;;;5138814;27;20277;-68
2021/08/03 00:12:58;;;;;;;28.27;14.40;;;11.10;99.90;;;;;;5150189;27;20198;-67
2021/08/03 00:15:46;;;;;;;31.27;15.37;;;11.10;99.90;;;;;;5141696;27;20288;-67
2021/08/03 00:18:34;;;;;;;27.33;13.50;;;11.10;99.90;;;;;;5148044;27;20190;-68
2021/08/03 00:21:21;;;;;;;23.27;12.27;;;11.10;99.90;;;;;;5141783;27;20224;-67
2021/08/03 00:24:10;;;;;;;21.17;12.13;;;11.00;99.90;;;;;;5146322;27;20987;-67
2021/08/03 00:26:58;;;;;;;25.03;10.40;;;11.00;99.90;;;;;;5141698;27;20198;-67
2021/08/03 00:29:45;;;;;;;12.80;8.10;;;11.00;99.90;;;;;;5143036;27;20193;-68
2021/08/03 00:32:33;;;;;;;18.40;7.63;;;11.10;99.90;;;;;;5151011;27;20212;-67
2021/08/03 00:35:21;;;;;;;17.00;7.57;;;11.10;99.90;;;;;;5137694;27;20204;-67
2021/08/03 00:38:08;;;;;;;22.90;11.17;;;11.00;99.90;;;;;;5149295;27;20237;-68
2021/08/03 00:41:00;;;;;;;33.90;15.00;;;11.10;99.90;;;;;;5140241;27;20822;-68
2021/08/03 00:43:47;;;;;;;30.90;12.97;;;11.10;99.90;;;;;;5146578;27;20308;-67
2021/08/03 00:46:35;;;;;;;162.30;52.20;;;11.00;99.90;;;;;;5133474;27;20218;-67
2021/08/03 00:49:23;;;;;;;88.77;30.00;;;11.00;99.90;;;;;;5145180;27;20210;-67
2021/08/03 00:52:12;;;;;;;55.70;20.80;;;11.00;99.90;;;;;;5142920;27;20196;-68
2021/08/03 00:54:59;;;;;;;53.60;20.87;;;11.00;99.90;;;;;;5134347;27;20220;-67
2021/08/03 00:57:49;;;;;;;55.60;19.43;;;10.90;99.90;;;;;;5133930;27;20205;-67
2021/08/03 01:00:36;;;;;;;43.57;16.97;;;10.90;99.90;;;;;;5132725;27;20202;-68
2021/08/03 01:03:24;;;;;;;42.40;16.70;;;10.90;99.90;;;;;;5133206;27;20662;-68
2021/08/03 01:06:15;;;;;;;46.67;15.57;;;10.90;99.90;;;;;;5143822;27;20220;-67
2021/08/03 01:09:03;;;;;;;44.67;15.57;;;10.90;99.90;;;;;;5138217;27;20206;-68
2021/08/03 01:11:53;;;;;;;45.27;18.57;;;10.90;99.90;;;;;;5149023;27;20205;-67
2021/08/03 01:14:45;;;;;;;42.60;15.10;;;10.90;99.90;;;;;;5136156;27;20203;-68
2021/08/03 01:17:36;;;;;;;29.43;14.03;;;10.90;99.90;;;;;;5141972;27;20198;-67
2021/08/03 01:20:25;;;;;;;36.20;13.23;;;10.80;99.90;;;;;;5150008;27;20669;-68
2021/08/03 01:23:40;;;;;;;34.00;13.50;;;10.80;99.90;;;;;;5149341;27;20606;-67
2021/08/03 01:26:43;;;;;;;26.83;11.93;;;10.80;99.90;;;;;;5132195;27;20584;-67
2021/08/03 01:29:32;;;;;;;22.60;10.43;;;10.80;99.90;;;;;;5142249;27;20222;-68
2021/08/03 01:32:24;;;;;;;20.07;8.17;;;10.80;99.90;;;;;;5137197;27;20674;-68
2021/08/03 01:35:11;;;;;;;41.27;15.30;;;10.80;99.90;;;;;;5140091;27;20200;-67
2021/08/03 01:38:00;;;;;;;31.17;11.40;;;10.80;99.90;;;;;;5136607;27;20315;-67
2021/08/03 01:40:48;;;;;;;19.80;8.47;;;10.80;99.90;;;;;;5150340;27;20212;-67
2021/08/03 01:43:35;;;;;;;15.10;6.40;;;10.80;99.90;;;;;;5136818;27;20560;-68
2021/08/03 01:46:24;;;;;;;12.17;5.57;;;10.80;99.90;;;;;;5142743;27;20326;-68
2021/08/03 01:49:12;;;;;;;12.27;5.60;;;10.80;99.90;;;;;;5142994;27;20214;-67
2021/08/03 01:51:59;;;;;;;11.57;5.07;;;10.80;99.90;;;;;;5147277;27;20203;-68
2021/08/03 01:54:47;;;;;;;13.07;6.30;;;10.80;99.90;;;;;;5135621;27;20194;-67
2021/08/03 01:57:34;;;;;;;17.30;7.40;;;10.70;99.90;;;;;;5146644;27;20281;-68
2021/08/03 02:00:22;;;;;;;13.17;5.57;;;10.70;99.90;;;;;;5138360;27;20197;-68
2021/08/03 02:03:11;;;;;;;14.03;5.70;;;10.80;99.90;;;;;;5143305;27;20593;-67
2021/08/03 02:05:59;;;;;;;12.13;5.40;;;10.70;99.90;;;;;;5145232;27;20209;-68
2021/08/03 02:08:47;;;;;;;16.50;5.27;;;10.70;99.90;;;;;;5146775;27;20259;-68
2021/08/03 02:11:36;;;;;;;10.50;5.33;;;10.70;99.90;;;;;;5137099;27;20754;-68
2021/08/03 02:14:24;;;;;;;6.80;4.90;;;10.80;99.90;;;;;;5145707;27;20200;-68
2021/08/03 02:17:14;;;;;;;9.27;4.90;;;10.80;99.90;;;;;;5142908;27;20614;-68
2021/08/03 02:20:05;;;;;;;12.17;5.10;;;10.70;99.90;;;;;;5152640;27;20205;-68
2021/08/03 02:22:52;;;;;;;7.40;4.93;;;10.70;99.90;;;;;;5133534;27;20314;-68
2021/08/03 02:25:40;;;;;;;13.07;6.57;;;10.70;99.90;;;;;;5133078;27;20671;-68
2021/08/03 02:28:28;;;;;;;15.80;6.43;;;10.70;99.90;;;;;;5132789;27;20193;-68
2021/08/03 02:31:17;;;;;;;11.60;6.70;;;10.60;99.90;;;;;;5132423;27;20684;-68
2021/08/03 02:34:07;;;;;;;11.57;5.43;;;10.60;99.90;;;;;;5133930;27;20675;-68
2021/08/03 02:36:58;;;;;;;10.00;5.60;;;10.60;99.90;;;;;;5133498;27;20193;-68
2021/08/03 02:39:46;;;;;;;8.63;5.33;;;10.70;99.90;;;;;;5146104;27;20206;-68
2021/08/03 02:42:33;;;;;;;11.67;6.20;;;10.70;99.90;;;;;;5143443;27;20203;-67
2021/08/03 02:45:21;;;;;;;19.43;6.03;;;10.70;99.90;;;;;;5149637;27;20198;-68
2021/08/03 02:48:13;;;;;;;19.27;7.57;;;10.60;99.90;;;;;;5134432;27;20201;-68
2021/08/03 02:51:01;;;;;;;28.10;10.90;;;10.60;99.90;;;;;;5149262;27;20294;-68
2021/08/03 02:53:51;;;;;;;27.70;10.23;;;10.60;99.90;;;;;;5134398;27;20199;-68
2021/08/03 02:56:38;;;;;;;14.17;7.30;;;10.60;99.90;;;;;;5142764;27;20206;-68
2021/08/03 02:59:26;;;;;;;16.47;7.60;;;10.60;99.90;;;;;;5143133;27;20237;-68
2021/08/03 03:02:15;;;;;;;17.93;7.87;;;10.60;99.90;;;;;;5137080;27;20198;-68
2021/08/03 03:05:05;;;;;;;17.70;8.27;;;10.60;99.90;;;;;;5144424;27;20210;-67
2021/08/03 03:07:55;;;;;;;31.07;11.27;;;10.60;99.90;;;;;;5134526;27;20287;-67
2021/08/03 03:11:17;;;;;;;20.50;9.30;;;10.60;99.90;;;;;;5132528;27;20213;-67
2021/08/03 03:14:05;;;;;;;21.50;7.43;;;10.70;99.90;;;;;;5132916;27;20193;-67
2021/08/03 03:16:53;;;;;;;11.80;6.73;;;10.60;99.90;;;;;;5133273;27;20199;-66
2021/08/03 03:19:41;;;;;;;11.67;5.77;;;10.60;99.90;;;;;;5133726;27;20231;-67
2021/08/03 03:22:28;;;;;;;10.93;5.93;;;10.60;99.90;;;;;;5132000;27;20192;-67
2021/08/03 03:25:18;;;;;;;21.10;8.03;;;10.60;99.90;;;;;;5132274;27;20557;-67
2021/08/03 03:28:08;;;;;;;19.00;6.20;;;10.60;99.90;;;;;;5138521;27;20241;-67
2021/08/03 03:30:55;;;;;;;11.07;5.73;;;10.60;99.90;;;;;;5152800;27;20222;-67
2021/08/03 03:33:43;;;;;;;9.23;5.20;;;10.60;99.90;;;;;;5152671;27;20208;-67
2021/08/03 03:36:32;;;;;;;12.37;5.40;;;10.60;99.90;;;;;;5153911;27;20589;-67
2021/08/03 03:39:19;;;;;;;10.83;5.77;;;10.60;99.90;;;;;;5151697;27;20665;-66
2021/08/03 03:42:07;;;;;;;11.77;5.87;;;10.60;99.90;;;;;;5145314;27;20201;-67
2021/08/03 03:44:56;;;;;;;8.47;5.33;;;10.60;99.90;;;;;;5134659;27;20197;-67
2021/08/03 03:47:50;;;;;;;10.37;5.50;;;10.70;99.90;;;;;;5144928;27;20222;-67
2021/08/03 03:50:46;;;;;;;12.27;5.00;;;10.70;99.90;;;;;;5145023;27;20319;-67
2021/08/03 03:53:36;;;;;;;13.00;5.10;;;10.70;99.90;;;;;;5152284;27;20193;-67
2021/08/03 03:56:25;;;;;;;7.27;5.03;;;10.70;99.90;;;;;;5131887;27;20190;-67
2021/08/03 03:59:13;;;;;;;7.83;4.57;;;10.80;99.90;;;;;;5131080;27;20227;-67
2021/08/03 04:02:03;;;;;;;12.00;5.37;;;10.80;99.90;;;;;;5140632;27;20580;-67
2021/08/03 04:04:51;;;;;;;7.30;4.63;;;10.90;99.90;;;;;;5143689;27;20199;-67
2021/08/03 04:07:39;;;;;;;10.57;4.60;;;10.90;99.90;;;;;;5134682;27;20197;-67
2021/08/03 04:10:33;;;;;;;7.63;4.27;;;11.00;99.90;;;;;;5134555;27;20193;-67
2021/08/03 04:13:20;;;;;;;7.43;4.20;;;11.10;99.90;;;;;;5152078;27;20197;-67
2021/08/03 04:16:08;;;;;;;8.57;4.30;;;11.20;99.90;;;;;;5138277;27;20258;-67
2021/08/03 04:18:57;;;;;;;7.33;4.17;;;11.30;99.90;;;;;;5140645;27;20191;-67
2021/08/03 04:21:46;;;;;;;9.70;4.53;;;11.40;99.90;;;;;;5146414;27;20575;-67
2021/08/03 04:24:34;;;;;;;5.43;4.17;;;11.50;99.90;;;;;;5133123;27;20263;-67
2021/08/03 04:27:21;;;;;;;8.37;5.07;;;11.60;99.90;;;;;;5147317;27;20686;-67
2021/08/03 04:30:10;;;;;;;11.17;5.00;;;11.70;99.90;;;;;;5140658;27;20594;-67
2021/08/03 04:32:57;;;;;;;8.10;4.87;;;11.80;99.90;;;;;;5133340;27;20657;-67
2021/08/03 04:35:46;;;;;;;10.30;5.60;;;11.80;99.90;;;;;;5145016;27;20214;-67
2021/08/03 04:38:34;;;;;;;9.80;5.37;;;12.00;99.90;;;;;;5139648;27;20208;-67
2021/08/03 04:41:22;;;;;;;9.23;6.60;;;12.00;99.90;;;;;;5147176;27;20250;-67
2021/08/03 04:44:09;;;;;;;7.80;6.23;;;12.20;99.90;;;;;;5131911;27;20371;-67
2021/08/03 04:46:57;;;;;;;13.80;7.83;;;12.30;99.90;;;;;;5137965;27;20229;-67
2021/08/03 04:49:45;;;;;;;18.17;8.60;;;12.50;99.90;;;;;;5140932;27;20532;-67
2021/08/03 04:52:34;;;;;;;15.83;9.23;;;12.70;99.90;;;;;;5139862;27;20259;-67
2021/08/03 04:55:21;;;;;;;16.93;9.40;;;12.90;99.90;;;;;;5142950;27;20202;-67
2021/08/03 04:58:09;;;;;;;12.90;8.93;;;13.00;99.90;;;;;;5142881;27;20223;-67
2021/08/03 05:00:56;;;;;;;15.53;9.20;;;13.20;99.90;;;;;;5134433;27;20216;-67
2021/08/03 05:03:44;;;;;;;14.70;8.83;;;13.30;99.90;;;;;;5134460;27;20198;-67
2021/08/03 05:06:32;;;;;;;15.27;9.30;;;13.40;99.90;;;;;;5135656;27;20188;-67
2021/08/03 05:09:20;;;;;;;13.33;8.27;;;13.60;99.90;;;;;;5141736;27;20333;-67
2021/08/03 05:12:08;;;;;;;18.63;8.87;;;13.70;99.90;;;;;;5140402;27;20212;-67
2021/08/03 05:15:00;;;;;;;19.23;9.20;;;13.80;99.90;;;;;;5133702;27;20773;-67
2021/08/03 05:17:47;;;;;;;19.67;9.80;;;13.80;99.90;;;;;;5138465;27;20197;-67
2021/08/03 05:20:35;;;;;;;21.37;9.60;;;13.90;99.90;;;;;;5131416;27;20204;-67
2021/08/03 05:23:22;;;;;;;15.33;8.60;;;14.00;99.90;;;;;;5136306;27;20231;-67
2021/08/03 05:26:11;;;;;;;14.37;9.33;;;14.10;99.90;;;;;;5133974;27;20197;-67
2021/08/03 05:28:59;;;;;;;19.63;9.57;;;14.20;99.90;;;;;;5144002;27;20198;-67
2021/08/03 05:31:47;;;;;;;15.30;9.67;;;14.30;99.90;;;;;;5152865;27;20217;-67
2021/08/03 05:34:35;;;;;;;19.33;10.23;;;14.40;99.90;;;;;;5138618;27;20196;-67
2021/08/03 05:37:22;;;;;;;16.57;10.23;;;14.50;99.90;;;;;;5144945;27;20209;-67
2021/08/03 05:40:12;;;;;;;18.27;10.50;;;14.60;99.90;;;;;;5143126;27;20213;-68
2021/08/03 05:43:01;;;;;;;16.37;11.00;;;14.60;99.90;;;;;;5146654;27;20662;-67
2021/08/03 05:45:49;;;;;;;22.17;10.90;;;14.70;99.90;;;;;;5145221;27;20581;-68
2021/08/03 05:48:36;;;;;;;22.43;10.17;;;14.80;99.90;;;;;;5147379;27;20554;-67
2021/08/03 05:51:24;;;;;;;15.43;9.77;;;14.90;99.90;;;;;;5136839;27;20218;-67
2021/08/03 05:54:12;;;;;;;17.73;10.63;;;15.00;99.90;;;;;;5136801;27;20212;-67
2021/08/03 05:57:00;;;;;;;16.33;10.73;;;15.10;99.90;;;;;;5152667;27;20205;-67
2021/08/03 05:59:49;;;;;;;17.63;11.10;;;15.20;99.90;;;;;;5138470;27;20344;-67
2021/08/03 06:02:36;;;;;;;19.43;12.13;;;15.30;99.90;;;;;;5145521;27;20190;-67
2021/08/03 06:05:25;;;;;;;19.73;12.07;;;15.30;99.90;;;;;;5148078;27;20211;-68
2021/08/03 06:08:12;;;;;;;20.43;12.50;;;15.50;99.90;;;;;;5144894;27;20198;-68
2021/08/03 06:11:00;;;;;;;27.97;12.37;;;15.50;99.90;;;;;;5140897;27;20216;-68
2021/08/03 06:13:48;;;;;;;19.40;10.53;;;15.60;99.90;;;;;;5151769;27;20198;-68
2021/08/03 06:16:38;;;;;;;18.70;10.43;;;15.60;99.90;;;;;;5144225;27;20229;-67
2021/08/03 06:19:27;;;;;;;16.00;9.50;;;15.80;99.90;;;;;;5135917;27;20239;-68
2021/08/03 06:22:15;;;;;;;15.00;8.80;;;15.90;99.90;;;;;;5149377;27;20195;-67
2021/08/03 06:25:02;;;;;;;15.17;7.90;;;15.90;99.90;;;;;;5148837;27;20210;-67
2021/08/03 06:27:50;;;;;;;18.53;9.33;;;16.10;99.90;;;;;;5150010;27;20206;-68
2021/08/03 06:30:38;;;;;;;17.83;8.23;;;16.10;99.90;;;;;;5142955;27;20201;-67
2021/08/03 06:33:27;;;;;;;13.83;8.10;;;16.20;99.90;;;;;;5133059;27;20191;-68
2021/08/03 06:36:15;;;;;;;13.63;7.47;;;16.20;99.90;;;;;;5133603;27;20538;-67
2021/08/03 06:39:02;;;;;;;11.40;7.27;;;16.30;99.90;;;;;;5147043;27;20211;-67
2021/08/03 06:41:50;;;;;;;8.60;6.03;;;16.40;99.90;;;;;;5154146;27;20671;-67
2021/08/03 06:44:43;;;;;;;11.50;6.40;;;16.50;99.90;;;;;;5148056;27;20195;-67
2021/08/03 06:47:35;;;;;;;9.80;6.50;;;16.60;99.90;;;;;;5132831;27;20225;-68
2021/08/03 06:50:26;;;;;;;10.67;6.37;;;16.70;99.90;;;;;;5133266;27;20206;-67
2021/08/03 06:53:14;;;;;;;13.20;7.17;;;16.80;99.90;;;;;;5132385;27;20222;-67
2021/08/03 06:56:03;;;;;;;11.97;7.07;;;16.90;99.90;;;;;;5131791;27;20578;-67
2021/08/03 06:58:56;;;;;;;11.40;7.00;;;17.00;99.90;;;;;;5132325;27;20225;-67
2021/08/03 07:01:47;;;;;;;9.93;6.73;;;17.30;99.90;;;;;;5131741;27;20198;-67
2021/08/03 07:04:37;;;;;;;8.97;6.97;;;17.30;99.90;;;;;;5147858;27;20202;-67
2021/08/03 07:07:26;;;;;;;9.27;6.93;;;17.60;99.90;;;;;;5134429;27;20215;-67
2021/08/03 07:10:15;;;;;;;12.00;7.63;;;17.60;99.90;;;;;;5132253;27;20210;-67
2021/08/03 07:13:02;;;;;;;13.13;7.67;;;17.70;99.90;;;;;;5131875;27;20247;-66
2021/08/03 07:15:51;;;;;;;13.67;7.33;;;17.90;99.90;;;;;;5131691;27;20194;-67
2021/08/03 07:18:39;;;;;;;10.53;6.63;;;17.90;99.90;;;;;;5132710;27;20221;-67
2021/08/03 07:21:27;;;;;;;9.97;7.00;;;18.00;99.90;;;;;;5140705;27;20197;-67
2021/08/03 07:24:16;;;;;;;11.20;6.53;;;18.10;99.90;;;;;;5146789;27;20276;-67
2021/08/03 07:27:04;;;;;;;10.93;7.00;;;18.40;99.90;;;;;;5143355;27;20629;-67
2021/08/03 07:29:51;;;;;;;11.73;6.37;;;18.50;99.90;;;;;;5141233;27;20192;-67
2021/08/03 07:32:39;;;;;;;8.07;5.20;;;18.60;99.90;;;;;;5141944;27;20223;-67
2021/08/03 07:35:26;;;;;;;6.40;4.57;;;18.50;99.90;;;;;;5138505;27;20225;-67
2021/08/03 07:38:14;;;;;;;11.83;5.23;;;18.70;99.90;;;;;;5140904;27;20208;-67
2021/08/03 07:41:03;;;;;;;8.50;5.60;;;18.90;99.90;;;;;;5146385;27;20253;-68
2021/08/03 07:43:51;;;;;;;7.03;4.63;;;19.00;99.90;;;;;;5134078;27;20193;-66
2021/08/03 07:46:39;;;;;;;4.87;3.97;;;19.10;99.90;;;;;;5147643;27;20243;-67
2021/08/03 07:49:26;;;;;;;8.43;5.60;;;19.20;99.90;;;;;;5141963;27;20552;-67
2021/08/03 07:52:14;;;;;;;3.83;3.00;;;19.00;99.90;;;;;;5138323;27;20220;-67
2021/08/03 07:55:02;;;;;;;5.63;3.53;;;18.90;99.90;;;;;;5140344;27;20220;-67
2021/08/03 07:57:51;;;;;;;6.57;3.50;;;19.10;99.90;;;;;;5137278;27;20646;-67
2021/08/03 08:00:38;;;;;;;9.93;3.77;;;19.20;99.90;;;;;;5138830;27;20201;-67
2021/08/03 08:03:27;;;;;;;6.03;3.23;;;19.20;99.90;;;;;;5140240;27;20197;-67
2021/08/03 08:06:15;;;;;;;6.13;3.20;;;19.50;99.90;;;;;;5149435;27;20201;-67
2021/08/03 08:09:02;;;;;;;5.90;3.60;;;19.90;99.90;;;;;;5145106;27;20300;-67
2021/08/03 08:11:50;;;;;;;5.83;3.67;;;20.10;99.90;;;;;;5144596;27;20589;-67
2021/08/03 08:14:39;;;;;;;4.80;3.60;;;20.20;99.90;;;;;;5142351;27;20193;-67
2021/08/03 08:17:26;;;;;;;3.97;3.10;;;20.30;99.90;;;;;;5135447;27;20206;-67
2021/08/03 08:20:14;;;;;;;6.83;3.63;;;20.60;99.90;;;;;;5135749;27;20604;-67
2021/08/03 08:23:02;;;;;;;4.23;3.00;;;20.80;99.90;;;;;;5138757;27;20298;-67
2021/08/03 08:25:49;;;;;;;2.63;2.20;;;21.00;99.90;;;;;;5133899;27;20195;-67
2021/08/03 08:28:37;;;;;;;3.27;2.57;;;20.80;99.90;;;;;;5143112;27;20239;-67
2021/08/03 08:31:26;;;;;;;3.93;2.43;;;21.10;99.90;;;;;;5135390;27;20644;-67
2021/08/03 08:34:13;;;;;;;3.30;2.30;;;21.20;99.90;;;;;;5138558;27;20197;-67
2021/08/03 08:37:01;;;;;;;2.63;2.30;;;21.20;99.90;;;;;;5139916;27;20640;-67
2021/08/03 08:39:49;;;;;;;2.77;2.10;;;21.60;99.90;;;;;;5148562;27;20217;-67
2021/08/03 08:42:37;;;;;;;2.57;2.20;;;21.70;99.90;;;;;;5138692;27;20198;-67
2021/08/03 08:45:25;;;;;;;3.37;2.23;;;21.80;99.90;;;;;;5143619;27;20678;-67
2021/08/03 08:48:18;;;;;;;3.30;2.23;;;22.00;99.90;;;;;;5132470;27;20552;-67
2021/08/03 08:51:07;;;;;;;3.20;1.87;;;22.40;99.90;;;;;;5142842;27;20206;-67
2021/08/03 08:53:54;;;;;;;2.70;1.80;;;22.50;99.90;;;;;;5132074;27;20214;-67
2021/08/03 08:56:42;;;;;;;6.23;2.00;;;22.40;99.90;;;;;;5143386;27;20209;-67
2021/08/03 08:59:31;;;;;;;2.33;1.93;;;22.10;99.90;;;;;;5139594;27;20873;-68
2021/08/03 09:02:27;;;;;;;2.37;1.80;;;22.10;99.90;;;;;;5135888;27;20190;-68
2021/08/03 09:05:17;;;;;;;2.13;1.60;;;22.00;99.90;;;;;;5136607;27;20201;-67
2021/08/03 09:08:04;;;;;;;2.23;1.60;;;21.90;99.90;;;;;;5146090;27;20206;-67
2021/08/03 09:10:52;;;;;;;2.17;1.60;;;21.70;99.90;;;;;;5136068;27;20222;-68
2021/08/03 09:13:50;;;;;;;1.70;1.60;;;21.70;99.90;;;;;;5135016;27;20210;-67
2021/08/03 09:16:44;;;;;;;3.20;1.90;;;22.00;99.90;;;;;;5141878;27;20198;-68
2021/08/03 09:19:33;;;;;;;3.40;1.80;;;22.50;99.90;;;;;;5131249;28;20191;-68
2021/08/03 09:22:23;;;;;;;3.47;1.67;;;22.50;99.90;;;;;;5130584;28;20198;-68
2021/08/03 09:25:11;;;;;;;2.20;1.60;;;22.40;99.90;;;;;;5131064;28;20266;-67
2021/08/03 09:28:02;;;;;;;2.30;1.90;;;22.60;99.90;;;;;;5130542;28;20198;-67
2021/08/03 09:30:49;;;;;;;2.17;1.70;;;22.70;99.90;;;;;;5130943;28;20213;-68
2021/08/03 09:33:37;;;;;;;2.57;1.70;;;22.90;99.90;;;;;;5131009;28;20740;-68
2021/08/03 09:36:46;;;;;;;3.17;1.87;;;22.90;99.90;;;;;;5139889;27;20191;-67
2021/08/03 09:39:42;;;;;;;2.10;1.90;;;23.00;99.90;;;;;;5134622;27;20198;-67
2021/08/03 09:42:29;;;;;;;2.83;1.80;;;23.40;99.90;;;;;;5140138;27;20196;-67
2021/08/03 09:45:17;;;;;;;2.03;1.40;;;23.30;99.90;;;;;;5142519;27;20843;-67
2021/08/03 09:48:12;;;;;;;2.30;1.67;;;22.90;99.90;;;;;;5138126;27;20202;-68
2021/08/03 09:51:05;;;;;;;1.77;1.60;;;22.80;99.90;;;;;;5143003;27;20197;-67
2021/08/03 09:53:53;;;;;;;1.90;1.60;;;23.00;99.90;;;;;;5134508;27;20215;-68
2021/08/03 09:56:42;;;;;;;2.57;1.60;;;23.10;99.90;;;;;;5145153;27;20194;-67
2021/08/03 09:59:36;;;;;;;3.40;1.67;;;23.20;99.90;;;;;;5151004;27;20233;-67
2021/08/03 10:02:25;;;;;;;5.37;1.73;;;23.40;99.90;;;;;;5137069;27;20353;-68
2021/08/03 10:05:12;;;;;;;3.93;1.80;;;23.40;99.90;;;;;;5141338;27;20206;-68
2021/08/03 10:08:00;;;;;;;1.80;1.70;;;23.50;99.90;;;;;;5140496;27;20214;-67
2021/08/03 10:10:48;;;;;;;3.93;1.80;;;23.40;99.90;;;;;;5138065;27;20202;-67
2021/08/03 10:13:37;;;;;;;2.47;2.00;;;23.40;99.90;;;;;;5146018;27;20214;-67
2021/08/03 10:16:25;;;;;;;4.60;1.97;;;23.60;99.90;;;;;;5143396;27;20206;-67
2021/08/03 10:19:12;;;;;;;1.80;1.60;;;23.60;99.90;;;;;;5144039;27;20210;-67
2021/08/03 10:22:06;;;;;;;5.87;1.90;;;23.20;99.90;;;;;;5143687;27;20194;-67
2021/08/03 10:24:57;;;;;;;3.50;1.70;;;23.60;99.90;;;;;;5139990;27;20190;-67
2021/08/03 10:27:45;;;;;;;3.83;1.70;;;24.00;99.90;;;;;;5153112;27;20201;-67
2021/08/03 10:30:38;;;;;;;3.73;2.33;;;24.30;99.90;;;;;;5135855;27;20206;-68
2021/08/03 10:33:41;;;;;;;7.07;1.80;;;24.00;99.90;;;;;;5145058;27;20617;-67
2021/08/03 10:36:49;;;;;;;3.85;2.45;;;23.90;99.90;;;;;;5139271;27;20196;-67
2021/08/03 10:39:49;;;;;;;2.55;1.90;;;24.40;99.90;;;;;;5137381;27;20186;-67
2021/08/03 10:42:37;;;;;;;2.78;1.90;;;24.80;99.90;;;;;;5151692;27;20194;-67
2021/08/03 10:45:24;;;;;;;3.47;1.63;;;25.20;99.90;;;;;;5135393;27;20194;-67
2021/08/03 10:48:28;;;;;;;3.03;1.60;;;25.40;99.90;;;;;;5134370;27;20206;-67
2021/08/03 10:51:38;;;;;;;2.33;1.67;;;25.00;99.90;;;;;;5133403;27;20194;-67
2021/08/03 10:54:25;;;;;;;3.25;1.88;;;25.30;99.90;;;;;;5133282;27;20352;-67
2021/08/03 10:57:13;;;;;;;3.80;1.55;;;25.40;99.90;;;;;;5134091;27;20210;-67
2021/08/03 11:00:05;;;;;;;1.80;1.40;;;25.60;99.90;;;;;;5152131;27;20269;-67
2021/08/03 11:02:52;;;;;;;3.42;1.30;;;25.90;99.90;;;;;;5135867;27;20190;-67
2021/08/03 11:05:41;;;;;;;5.20;1.38;;;26.00;99.90;;;;;;5149534;27;20200;-67
2021/08/03 11:08:32;;;;;;;3.97;1.40;;;25.80;99.90;;;;;;5136283;27;20202;-67
2021/08/03 11:11:22;;;;;;;3.03;1.13;;;25.60;99.90;;;;;;5146773;27;20732;-68
2021/08/03 11:14:11;;;;;;;2.72;1.10;;;25.60;99.90;;;;;;5142697;27;20210;-67
2021/08/03 11:16:59;;;;;;;2.25;1.10;;;25.40;99.90;;;;;;5151161;27;20225;-67
2021/08/03 11:19:46;;;;;;;2.35;1.20;;;25.00;99.90;;;;;;5147310;27;20231;-67
2021/08/03 11:25:28;;;;;;;3.45;1.20;;;25.10;99.90;;;;;;5147705;27;20766;-67
2021/08/03 11:28:16;;;;;;;1.55;1.17;;;25.60;99.90;;;;;;5123148;27;20620;-67
2021/08/03 11:31:04;;;;;;;1.30;1.17;;;25.70;99.90;;;;;;5131207;27;20199;-67
2021/08/03 11:33:56;;;;;;;2.08;1.10;;;25.50;99.90;;;;;;5140832;27;20642;-68
2021/08/03 11:37:01;;;;;;;1.77;1.35;;;25.80;99.90;;;;;;5131148;27;20270;-67
2021/08/03 11:39:51;;;;;;;1.92;1.00;;;25.70;99.90;;;;;;5128706;27;20206;-67
2021/08/03 11:42:41;;;;;;;1.15;1.00;;;25.40;99.90;;;;;;5115129;27;20198;-67
2021/08/03 11:45:28;;;;;;;1.20;1.10;;;25.20;99.90;;;;;;5120095;27;20259;-67
2021/08/03 11:48:17;;;;;;;1.00;0.93;;;25.10;99.90;;;;;;5122989;28;20219;-67
2021/08/03 11:51:14;;;;;;;1.42;1.00;;;25.30;99.90;;;;;;5103263;28;20688;-67
2021/08/03 11:54:12;;;;;;;2.08;1.13;;;25.70;99.90;;;;;;5118204;28;20561;-67
2021/08/03 11:56:59;;;;;;;2.17;1.00;;;26.10;99.90;;;;;;5121165;28;20197;-67
2021/08/03 11:59:49;;;;;;;1.13;1.00;;;25.90;99.90;;;;;;5108702;28;20213;-67
2021/08/03 12:02:36;;;;;;;1.95;1.00;;;26.20;99.90;;;;;;5140494;27;20207;-67
2021/08/03 12:05:26;;;;;;;1.88;1.25;;;26.00;99.90;;;;;;5138898;27;20218;-67
2021/08/03 12:08:14;;;;;;;1.80;1.00;;;26.40;99.90;;;;;;5130392;27;20248;-66
2021/08/03 12:11:02;;;;;;;2.05;1.10;;;25.90;99.70;;;;;;5138059;27;20753;-67
2021/08/03 12:13:50;;;;;;;2.05;1.00;;;25.50;99.30;;;;;;5137408;27;20191;-66
2021/08/03 12:16:42;;;;;;;1.70;1.13;;;25.70;99.90;;;;;;5139545;27;20660;-66
2021/08/03 12:19:31;;;;;;;2.40;1.00;;;26.10;99.90;;;;;;5143845;27;20202;-66
2021/08/03 12:22:27;;;;;;;1.92;1.13;;;26.20;98.10;;;;;;5140836;27;20206;-66
2021/08/03 12:25:15;;;;;;;3.08;1.10;;;26.20;99.80;;;;;;5128977;27;20238;-66
2021/08/03 12:28:03;;;;;;;3.85;1.00;;;26.50;99.90;;;;;;5145950;27;20205;-66
2021/08/03 12:30:50;;;;;;;1.30;0.95;;;26.80;97.60;;;;;;5121390;27;20191;-67
2021/08/03 12:33:39;;;;;;;1.00;0.90;;;27.30;98.30;;;;;;5132804;27;20212;-66
2021/08/03 12:36:27;;;;;;;1.75;0.80;;;27.20;93.80;;;;;;5122834;27;20195;-66
2021/08/03 12:39:20;;;;;;;4.35;1.10;;;27.30;93.10;;;;;;5117893;27;20199;-67
2021/08/03 12:42:10;;;;;;;1.45;0.80;;;27.00;92.90;;;;;;5115722;27;20239;-67
2021/08/03 12:44:59;;;;;;;1.02;0.85;;;27.10;92.50;;;;;;5113170;27;20214;-67
2021/08/03 12:47:53;;;;;;;1.38;0.90;;;27.20;90.60;;;;;;5113191;27;20236;-67
2021/08/03 12:50:50;;;;;;;3.95;1.20;;;27.10;91.80;;;;;;5113505;27;20195;-67
2021/08/03 12:53:38;;;;;;;4.38;0.90;;;26.20;90.60;;;;;;5114369;27;20199;-67
2021/08/03 12:56:34;;;;;;;1.70;0.90;;;25.90;93.90;;;;;;5132359;27;20209;-66
2021/08/03 12:59:35;;;;;;;0.88;0.80;;;26.30;91.10;;;;;;5126741;27;20255;-66
2021/08/03 13:02:23;;;;;;;1.70;0.90;;;26.10;89.80;;;;;;5122571;27;20195;-67
2021/08/03 13:05:10;;;;;;;2.83;0.90;;;26.20;92.40;;;;;;5124747;27;20574;-67
2021/08/03 13:07:59;;;;;;;1.40;1.23;;;26.10;91.10;;;;;;5119135;27;20658;-66
2021/08/03 13:10:47;;;;;;;1.20;1.00;;;25.50;91.30;;;;;;5127086;27;20751;-66
2021/08/03 13:13:34;;;;;;;2.85;1.23;;;25.30;92.20;;;;;;5128334;27;20202;-67
2021/08/03 13:16:22;;;;;;;1.25;1.15;;;25.50;92.70;;;;;;5123528;27;20657;-66
2021/08/03 13:19:10;;;;;;;3.03;1.20;;;25.80;93.90;;;;;;5122775;27;20195;-66
2021/08/03 13:21:57;;;;;;;1.60;1.10;;;26.00;92.00;;;;;;5126948;27;20230;-66
2021/08/03 13:24:47;;;;;;;1.30;1.20;;;25.50;91.30;;;;;;5120110;27;20305;-66
2021/08/03 13:27:34;;;;;;;2.63;1.40;;;24.80;94.00;;;;;;5116238;27;20210;-66
2021/08/03 13:30:22;;;;;;;1.98;1.50;;;24.40;96.70;;;;;;5110273;27;20202;-66
2021/08/03 13:33:09;;;;;;;2.70;1.30;;;24.80;99.10;;;;;;5125167;27;20204;-66
2021/08/03 13:35:57;;;;;;;1.98;1.42;;;25.40;96.90;;;;;;5114599;27;20223;-66
2021/08/03 13:38:44;;;;;;;2.15;1.20;;;26.00;97.30;;;;;;5129289;27;20209;-66
2021/08/03 13:41:34;;;;;;;1.95;1.50;;;26.60;96.70;;;;;;5104153;27;20684;-66
2021/08/03 13:44:21;;;;;;;1.52;1.38;;;27.10;98.40;;;;;;5121490;27;20340;-66
2021/08/03 13:47:10;;;;;;;1.83;1.40;;;27.40;97.50;;;;;;5103394;27;20485;-66
2021/08/03 13:49:57;;;;;;;1.70;1.27;;;27.40;95.00;;;;;;5115956;27;20534;-66
2021/08/03 13:52:45;;;;;;;2.05;1.30;;;27.80;96.00;;;;;;5121391;27;20213;-66
2021/08/03 13:55:33;;;;;;;1.73;1.20;;;28.20;94.20;;;;;;5121348;27;20630;-66
2021/08/03 13:58:22;;;;;;;1.40;1.30;;;27.60;91.00;;;;;;5120145;27;20202;-66
2021/08/03 14:01:09;;;;;;;1.20;1.10;;;27.40;93.10;;;;;;5123326;27;20205;-67
2021/08/03 14:03:57;;;;;;;1.30;1.20;;;27.70;93.90;;;;;;5108493;27;20210;-66
2021/08/03 14:06:44;;;;;;;2.10;1.35;;;27.60;94.20;;;;;;5121503;27;20198;-66
2021/08/03 14:09:32;;;;;;;1.92;1.20;;;27.50;92.60;;;;;;5120329;27;20867;-66
2021/08/03 14:12:20;;;;;;;2.63;1.33;;;27.30;93.20;;;;;;5127947;27;20203;-66
2021/08/03 14:15:10;;;;;;;1.33;1.23;;;27.00;94.90;;;;;;5131727;27;20282;-66
2021/08/03 14:17:57;;;;;;;2.72;1.30;;;26.80;95.20;;;;;;5131676;27;20198;-66
2021/08/03 14:20:45;;;;;;;2.53;1.50;;;26.90;99.00;;;;;;5131690;27;20194;-67
2021/08/03 14:23:32;;;;;;;2.63;1.10;;;27.50;98.80;;;;;;5131800;27;20226;-66
2021/08/03 14:26:20;;;;;;;1.33;1.20;;;27.30;93.40;;;;;;5131258;27;20203;-66
2021/08/03 14:29:07;;;;;;;1.40;1.20;;;27.60;93.60;;;;;;5126162;27;20195;-67
2021/08/03 14:31:56;;;;;;;5.07;1.60;;;27.50;91.90;;;;;;5132249;27;20655;-66
2021/08/03 14:34:44;;;;;;;2.80;1.30;;;27.30;91.70;;;;;;5131971;27;20205;-67
2021/08/03 14:37:31;;;;;;;4.18;1.60;;;27.00;93.40;;;;;;5131669;27;20202;-66